sensor_id;sensor_type;location;lat;lon;timestamp;temperature;humidity
5055;DHT22;13829;48.990;8.346;2023-02-14T00:01:15;3.20;99.90
5055;DHT22;13829;48.990;8.346;2023-02-14T00:03:42;3.20;99.90
5055;DHT22;13829;48.990;8.346;2023-02-14T00:06:11;3.20;99.90
5055;DHT22;13829;48.990;8.346;2023-02-14T00:08:40;3.10;99.90
5055;DHT22;13829;48.990;8.346;2023-02-14T00:11:09;3.00;99.90
5055;DHT22;13829;48.990;8.346;2023-02-14T00:13:37;3.10;99.90
5055;DHT22;13829;48.990;8.346;2023-02-14T00:16:06;3.20;99.90
5055;DHT22;13829;48.990;8.346;2023-02-14T00:18:32;3.20;99.90
5055;DHT22;13829;48.990;8.346;2023-02-14T00:21:16;3.20;99.90
5055;DHT22;13829;48.990;8.346;2023-02-14T00:23:43;3.20;99.90
5055;DHT22;13829;48.990;8.346;2023-02-14T00:26:13;3.20;99.90
5055;DHT22;13829;48.990;8.346;2023-02-14T00:28:41;3.20;99.90
5055;DHT22;13829;48.990;8.346;2023-02-14T00:31:09;3.20;99.90
5055;DHT22;13829;48.990;8.346;2023-02-14T00:33:37;3.30;99.90
5055;DHT22;13829;48.990;8.346;2023-02-14T00:36:05;3.30;99.90
5055;DHT22;13829;48.990;8.346;2023-02-14T00:38:33;3.40;99.90
5055;DHT22;13829;48.990;8.346;2023-02-14T00:41:00;3.30;99.90
5055;DHT22;13829;48.990;8.346;2023-02-14T00:43:28;3.30;99.90
5055;DHT22;13829;48.990;8.346;2023-02-14T00:45:55;3.30;99.90
5055;DHT22;13829;48.990;8.346;2023-02-14T00:48:23;3.20;99.90
5055;DHT22;13829;48.990;8.346;2023-02-14T00:50:50;3.20;99.90
5055;DHT22;13829;48.990;8.346;2023-02-14T00:53:17;3.20;99.90
5055;DHT22;13829;48.990;8.346;2023-02-14T00:55:45;3.10;99.90
5055;DHT22;13829;48.990;8.346;2023-02-14T00:58:11;3.10;99.90
5055;DHT22;13829;48.990;8.346;2023-02-14T01:00:38;3.00;99.90
5055;DHT22;13829;48.990;8.346;2023-02-14T01:03:05;3.00;99.90
5055;DHT22;13829;48.990;8.346;2023-02-14T01:05:33;3.00;99.90
5055;DHT22;13829;48.990;8.346;2023-02-14T01:08:01;3.10;99.90
5055;DHT22;13829;48.990;8.346;2023-02-14T01:10:28;2.90;99.90
5055;DHT22;13829;48.990;8.346;2023-02-14T01:12:54;2.90;99.90
5055;DHT22;13829;48.990;8.346;2023-02-14T01:15:21;3.00;99.90
5055;DHT22;13829;48.990;8.346;2023-02-14T01:17:48;3.10;99.90
5055;DHT22;13829;48.990;8.346;2023-02-14T01:20:15;3.10;99.90
5055;DHT22;13829;48.990;8.346;2023-02-14T01:22:44;3.10;99.90
5055;DHT22;13829;48.990;8.346;2023-02-14T01:25:11;3.00;99.90
5055;DHT22;13829;48.990;8.346;2023-02-14T01:27:38;3.00;99.90
5055;DHT22;13829;48.990;8.346;2023-02-14T01:30:06;3.00;99.90
5055;DHT22;13829;48.990;8.346;2023-02-14T01:32:34;2.90;99.90
5055;DHT22;13829;48.990;8.346;2023-02-14T01:35:01;3.00;99.90
5055;DHT22;13829;48.990;8.346;2023-02-14T01:37:29;3.10;99.90
5055;DHT22;13829;48.990;8.346;2023-02-14T01:39:57;3.10;99.90
5055;DHT22;13829;48.990;8.346;2023-02-14T01:42:24;3.20;99.90
5055;DHT22;13829;48.990;8.346;2023-02-14T01:44:58;3.10;99.90
5055;DHT22;13829;48.990;8.346;2023-02-14T01:47:29;3.00;99.90
5055;DHT22;13829;48.990;8.346;2023-02-14T01:50:04;2.90;99.90
5055;DHT22;13829;48.990;8.346;2023-02-14T01:52:41;3.00;99.90
5055;DHT22;13829;48.990;8.346;2023-02-14T01:55:15;3.20;99.90
5055;DHT22;13829;48.990;8.346;2023-02-14T01:57:48;3.20;99.90
5055;DHT22;13829;48.990;8.346;2023-02-14T02:00:20;3.10;99.90
5055;DHT22;13829;48.990;8.346;2023-02-14T02:03:05;3.10;99.90
5055;DHT22;13829;48.990;8.346;2023-02-14T02:05:34;3.10;99.90
5055;DHT22;13829;48.990;8.346;2023-02-14T02:08:03;3.00;99.90
5055;DHT22;13829;48.990;8.346;2023-02-14T02:10:32;2.90;99.90
5055;DHT22;13829;48.990;8.346;2023-02-14T02:13:02;2.80;99.90
5055;DHT22;13829;48.990;8.346;2023-02-14T02:15:34;2.60;99.90
5055;DHT22;13829;48.990;8.346;2023-02-14T02:18:18;2.70;99.90
5055;DHT22;13829;48.990;8.346;2023-02-14T02:21:31;2.70;99.90
5055;DHT22;13829;48.990;8.346;2023-02-14T02:24:31;2.70;99.90
5055;DHT22;13829;48.990;8.346;2023-02-14T02:27:24;2.80;99.90
5055;DHT22;13829;48.990;8.346;2023-02-14T02:30:44;2.60;99.90
5055;DHT22;13829;48.990;8.346;2023-02-14T02:34:12;2.60;99.90
5055;DHT22;13829;48.990;8.346;2023-02-14T02:37:16;2.50;99.90
5055;DHT22;13829;48.990;8.346;2023-02-14T02:40:06;2.30;99.90
5055;DHT22;13829;48.990;8.346;2023-02-14T02:42:48;2.20;99.90
5055;DHT22;13829;48.990;8.346;2023-02-14T02:45:27;2.20;99.90
5055;DHT22;13829;48.990;8.346;2023-02-14T02:48:26;2.10;99.90
5055;DHT22;13829;48.990;8.346;2023-02-14T02:51:04;2.00;99.90
5055;DHT22;13829;48.990;8.346;2023-02-14T02:54:01;1.90;99.90
5055;DHT22;13829;48.990;8.346;2023-02-14T02:56:36;1.80;99.90
5055;DHT22;13829;48.990;8.346;2023-02-14T02:59:14;2.00;99.90
5055;DHT22;13829;48.990;8.346;2023-02-14T03:01:49;2.00;99.90
5055;DHT22;13829;48.990;8.346;2023-02-14T03:04:20;2.10;99.90
5055;DHT22;13829;48.990;8.346;2023-02-14T03:07:06;2.10;99.90
5055;DHT22;13829;48.990;8.346;2023-02-14T03:09:53;2.10;99.90
5055;DHT22;13829;48.990;8.346;2023-02-14T03:16:16;2.00;99.90
5055;DHT22;13829;48.990;8.346;2023-02-14T03:22:31;1.90;99.90
5055;DHT22;13829;48.990;8.346;2023-02-14T03:25:25;1.90;99.90
5055;DHT22;13829;48.990;8.346;2023-02-14T03:28:06;2.10;99.90
5055;DHT22;13829;48.990;8.346;2023-02-14T03:30:46;2.40;99.90
5055;DHT22;13829;48.990;8.346;2023-02-14T03:33:26;2.40;99.90
5055;DHT22;13829;48.990;8.346;2023-02-14T03:36:00;2.40;99.90
5055;DHT22;13829;48.990;8.346;2023-02-14T03:38:35;2.50;99.90
5055;DHT22;13829;48.990;8.346;2023-02-14T03:41:11;2.50;99.90
5055;DHT22;13829;48.990;8.346;2023-02-14T03:43:44;2.50;99.90
5055;DHT22;13829;48.990;8.346;2023-02-14T03:46:18;2.50;99.90
5055;DHT22;13829;48.990;8.346;2023-02-14T03:48:50;2.50;99.90
5055;DHT22;13829;48.990;8.346;2023-02-14T03:51:22;2.50;99.90
5055;DHT22;13829;48.990;8.346;2023-02-14T03:53:53;2.60;99.90
5055;DHT22;13829;48.990;8.346;2023-02-14T03:56:31;2.60;99.90
5055;DHT22;13829;48.990;8.346;2023-02-14T03:59:06;2.60;99.90
5055;DHT22;13829;48.990;8.346;2023-02-14T04:01:43;2.60;99.90
5055;DHT22;13829;48.990;8.346;2023-02-14T04:04:15;2.60;99.90
5055;DHT22;13829;48.990;8.346;2023-02-14T04:06:45;2.60;99.90
5055;DHT22;13829;48.990;8.346;2023-02-14T04:09:13;2.60;99.90
5055;DHT22;13829;48.990;8.346;2023-02-14T04:11:41;2.60;99.90
5055;DHT22;13829;48.990;8.346;2023-02-14T04:14:08;2.70;99.90
5055;DHT22;13829;48.990;8.346;2023-02-14T04:16:35;2.70;99.90
5055;DHT22;13829;48.990;8.346;2023-02-14T04:19:15;2.40;99.90
5055;DHT22;13829;48.990;8.346;2023-02-14T04:21:49;2.30;99.90
5055;DHT22;13829;48.990;8.346;2023-02-14T04:24:17;2.20;99.90
5055;DHT22;13829;48.990;8.346;2023-02-14T04:26:46;2.10;99.90
5055;DHT22;13829;48.990;8.346;2023-02-14T04:29:34;2.00;99.90
5055;DHT22;13829;48.990;8.346;2023-02-14T04:32:04;2.00;99.90
5055;DHT22;13829;48.990;8.346;2023-02-14T04:34:31;1.90;99.90
5055;DHT22;13829;48.990;8.346;2023-02-14T04:36:58;1.80;99.90
5055;DHT22;13829;48.990;8.346;2023-02-14T04:39:25;1.90;99.90
5055;DHT22;13829;48.990;8.346;2023-02-14T04:41:54;1.90;99.90
5055;DHT22;13829;48.990;8.346;2023-02-14T04:44:21;1.70;99.90
5055;DHT22;13829;48.990;8.346;2023-02-14T04:46:48;1.60;99.90
5055;DHT22;13829;48.990;8.346;2023-02-14T04:49:15;1.50;99.90
5055;DHT22;13829;48.990;8.346;2023-02-14T04:51:42;1.50;99.90
5055;DHT22;13829;48.990;8.346;2023-02-14T04:54:09;1.50;99.90
5055;DHT22;13829;48.990;8.346;2023-02-14T04:56:37;1.70;99.90
5055;DHT22;13829;48.990;8.346;2023-02-14T04:59:06;1.60;99.90
5055;DHT22;13829;48.990;8.346;2023-02-14T05:01:34;1.60;99.90
5055;DHT22;13829;48.990;8.346;2023-02-14T05:04:00;1.60;99.90
5055;DHT22;13829;48.990;8.346;2023-02-14T05:06:28;1.40;99.90
5055;DHT22;13829;48.990;8.346;2023-02-14T05:08:55;1.40;99.90
5055;DHT22;13829;48.990;8.346;2023-02-14T05:11:22;1.40;99.90
5055;DHT22;13829;48.990;8.346;2023-02-14T05:13:49;1.50;99.90
5055;DHT22;13829;48.990;8.346;2023-02-14T05:16:17;1.50;99.90
5055;DHT22;13829;48.990;8.346;2023-02-14T05:18:44;1.50;99.90
5055;DHT22;13829;48.990;8.346;2023-02-14T05:21:11;1.50;99.90
5055;DHT22;13829;48.990;8.346;2023-02-14T05:23:39;1.60;99.90
5055;DHT22;13829;48.990;8.346;2023-02-14T05:26:06;1.60;99.90
5055;DHT22;13829;48.990;8.346;2023-02-14T05:28:33;1.50;99.90
5055;DHT22;13829;48.990;8.346;2023-02-14T05:31:00;1.40;99.90
5055;DHT22;13829;48.990;8.346;2023-02-14T05:33:28;1.30;99.90
5055;DHT22;13829;48.990;8.346;2023-02-14T05:35:57;1.20;99.90
5055;DHT22;13829;48.990;8.346;2023-02-14T05:38:25;1.30;99.90
5055;DHT22;13829;48.990;8.346;2023-02-14T05:40:52;1.50;99.90
5055;DHT22;13829;48.990;8.346;2023-02-14T05:43:19;1.50;99.90
5055;DHT22;13829;48.990;8.346;2023-02-14T05:45:46;1.40;99.90
5055;DHT22;13829;48.990;8.346;2023-02-14T05:48:13;1.50;99.90
5055;DHT22;13829;48.990;8.346;2023-02-14T05:50:42;1.40;99.90
5055;DHT22;13829;48.990;8.346;2023-02-14T05:53:09;1.40;99.90
5055;DHT22;13829;48.990;8.346;2023-02-14T05:55:36;1.40;99.90
5055;DHT22;13829;48.990;8.346;2023-02-14T05:58:03;1.50;99.90
5055;DHT22;13829;48.990;8.346;2023-02-14T06:00:31;1.60;99.90
5055;DHT22;13829;48.990;8.346;2023-02-14T06:02:58;1.60;99.90
5055;DHT22;13829;48.990;8.346;2023-02-14T06:05:26;1.60;99.90
5055;DHT22;13829;48.990;8.346;2023-02-14T06:07:54;1.50;99.90
5055;DHT22;13829;48.990;8.346;2023-02-14T06:10:23;1.30;99.90
5055;DHT22;13829;48.990;8.346;2023-02-14T06:12:52;1.20;99.90
5055;DHT22;13829;48.990;8.346;2023-02-14T06:15:19;1.10;99.90
5055;DHT22;13829;48.990;8.346;2023-02-14T06:17:50;1.10;99.90
5055;DHT22;13829;48.990;8.346;2023-02-14T06:20:17;1.00;99.90
5055;DHT22;13829;48.990;8.346;2023-02-14T06:22:45;0.90;99.90
5055;DHT22;13829;48.990;8.346;2023-02-14T06:25:13;0.90;99.90
5055;DHT22;13829;48.990;8.346;2023-02-14T06:27:40;1.00;99.90
5055;DHT22;13829;48.990;8.346;2023-02-14T06:30:08;1.10;99.90
5055;DHT22;13829;48.990;8.346;2023-02-14T06:32:37;1.00;99.90
5055;DHT22;13829;48.990;8.346;2023-02-14T06:35:04;1.00;99.90
5055;DHT22;13829;48.990;8.346;2023-02-14T06:37:32;1.10;99.90
5055;DHT22;13829;48.990;8.346;2023-02-14T06:39:59;1.20;99.90
5055;DHT22;13829;48.990;8.346;2023-02-14T06:42:28;1.30;99.90
5055;DHT22;13829;48.990;8.346;2023-02-14T06:44:55;1.50;99.90
5055;DHT22;13829;48.990;8.346;2023-02-14T06:47:22;1.60;99.90
5055;DHT22;13829;48.990;8.346;2023-02-14T06:49:49;1.80;99.90
5055;DHT22;13829;48.990;8.346;2023-02-14T06:52:16;1.90;99.90
5055;DHT22;13829;48.990;8.346;2023-02-14T06:54:43;1.80;99.90
5055;DHT22;13829;48.990;8.346;2023-02-14T06:57:09;1.80;99.90
5055;DHT22;13829;48.990;8.346;2023-02-14T06:59:38;1.60;99.90
5055;DHT22;13829;48.990;8.346;2023-02-14T07:02:05;1.30;99.90
5055;DHT22;13829;48.990;8.346;2023-02-14T07:04:32;1.20;99.90
5055;DHT22;13829;48.990;8.346;2023-02-14T07:06:59;1.20;99.90
5055;DHT22;13829;48.990;8.346;2023-02-14T07:09:26;1.10;99.90
5055;DHT22;13829;48.990;8.346;2023-02-14T07:11:53;1.10;99.90
5055;DHT22;13829;48.990;8.346;2023-02-14T07:14:20;1.10;99.90
5055;DHT22;13829;48.990;8.346;2023-02-14T07:16:48;1.10;99.90
5055;DHT22;13829;48.990;8.346;2023-02-14T07:19:15;1.20;99.90
5055;DHT22;13829;48.990;8.346;2023-02-14T07:21:42;1.30;99.90
5055;DHT22;13829;48.990;8.346;2023-02-14T07:24:09;1.40;99.90
5055;DHT22;13829;48.990;8.346;2023-02-14T07:26:35;1.50;99.90
5055;DHT22;13829;48.990;8.346;2023-02-14T07:29:02;1.40;99.90
5055;DHT22;13829;48.990;8.346;2023-02-14T07:31:29;1.30;99.90
5055;DHT22;13829;48.990;8.346;2023-02-14T07:33:58;1.30;99.90
5055;DHT22;13829;48.990;8.346;2023-02-14T07:36:25;1.30;99.90
5055;DHT22;13829;48.990;8.346;2023-02-14T07:38:54;1.30;99.90
5055;DHT22;13829;48.990;8.346;2023-02-14T07:41:21;1.50;99.90
5055;DHT22;13829;48.990;8.346;2023-02-14T07:43:48;1.50;99.90
5055;DHT22;13829;48.990;8.346;2023-02-14T07:46:15;1.50;99.90
5055;DHT22;13829;48.990;8.346;2023-02-14T07:48:42;1.50;99.90
5055;DHT22;13829;48.990;8.346;2023-02-14T07:51:11;1.70;99.90
5055;DHT22;13829;48.990;8.346;2023-02-14T07:53:38;1.80;99.90
5055;DHT22;13829;48.990;8.346;2023-02-14T07:56:06;1.80;99.90
5055;DHT22;13829;48.990;8.346;2023-02-14T07:58:32;2.00;99.90
5055;DHT22;13829;48.990;8.346;2023-02-14T08:00:59;2.10;99.90
5055;DHT22;13829;48.990;8.346;2023-02-14T08:03:26;2.10;99.90
5055;DHT22;13829;48.990;8.346;2023-02-14T08:05:53;2.20;99.90
5055;DHT22;13829;48.990;8.346;2023-02-14T08:08:25;2.00;99.90
5055;DHT22;13829;48.990;8.346;2023-02-14T08:10:53;2.00;99.90
5055;DHT22;13829;48.990;8.346;2023-02-14T08:13:20;2.10;99.90
5055;DHT22;13829;48.990;8.346;2023-02-14T08:15:46;2.30;99.90
5055;DHT22;13829;48.990;8.346;2023-02-14T08:18:35;2.30;99.90
5055;DHT22;13829;48.990;8.346;2023-02-14T08:21:04;2.50;99.90
5055;DHT22;13829;48.990;8.346;2023-02-14T08:23:34;2.50;99.90
5055;DHT22;13829;48.990;8.346;2023-02-14T08:26:02;2.30;99.90
5055;DHT22;13829;48.990;8.346;2023-02-14T08:28:29;2.20;99.90
5055;DHT22;13829;48.990;8.346;2023-02-14T08:30:57;2.30;99.90
5055;DHT22;13829;48.990;8.346;2023-02-14T08:33:24;2.40;99.90
5055;DHT22;13829;48.990;8.346;2023-02-14T08:35:51;2.50;99.90
5055;DHT22;13829;48.990;8.346;2023-02-14T08:38:18;2.50;99.90
5055;DHT22;13829;48.990;8.346;2023-02-14T08:40:46;2.50;99.90
5055;DHT22;13829;48.990;8.346;2023-02-14T08:43:13;2.60;99.90
5055;DHT22;13829;48.990;8.346;2023-02-14T08:45:40;2.60;99.90
5055;DHT22;13829;48.990;8.346;2023-02-14T08:48:09;2.70;99.90
5055;DHT22;13829;48.990;8.346;2023-02-14T08:50:38;2.70;99.90
5055;DHT22;13829;48.990;8.346;2023-02-14T08:53:07;2.70;99.90
5055;DHT22;13829;48.990;8.346;2023-02-14T08:55:35;2.60;99.90
5055;DHT22;13829;48.990;8.346;2023-02-14T08:58:04;2.40;99.90
5055;DHT22;13829;48.990;8.346;2023-02-14T09:00:32;2.10;99.90
5055;DHT22;13829;48.990;8.346;2023-02-14T09:02:59;2.10;99.90
5055;DHT22;13829;48.990;8.346;2023-02-14T09:05:26;2.10;99.90
5055;DHT22;13829;48.990;8.346;2023-02-14T09:07:53;2.10;99.90
5055;DHT22;13829;48.990;8.346;2023-02-14T09:10:21;2.00;99.90
5055;DHT22;13829;48.990;8.346;2023-02-14T09:12:49;2.20;99.90
5055;DHT22;13829;48.990;8.346;2023-02-14T09:15:18;2.30;99.90
5055;DHT22;13829;48.990;8.346;2023-02-14T09:17:46;2.40;99.90
5055;DHT22;13829;48.990;8.346;2023-02-14T09:20:14;2.60;99.90
5055;DHT22;13829;48.990;8.346;2023-02-14T09:22:41;2.40;99.90
5055;DHT22;13829;48.990;8.346;2023-02-14T09:25:09;2.50;99.90
5055;DHT22;13829;48.990;8.346;2023-02-14T09:27:36;2.60;99.90
5055;DHT22;13829;48.990;8.346;2023-02-14T09:30:04;2.70;99.90
5055;DHT22;13829;48.990;8.346;2023-02-14T09:32:32;2.90;99.90
5055;DHT22;13829;48.990;8.346;2023-02-14T09:35:00;3.00;99.90
5055;DHT22;13829;48.990;8.346;2023-02-14T09:37:27;2.90;99.90
5055;DHT22;13829;48.990;8.346;2023-02-14T09:39:53;3.10;99.90
5055;DHT22;13829;48.990;8.346;2023-02-14T09:42:58;3.40;99.90
5055;DHT22;13829;48.990;8.346;2023-02-14T09:45:32;3.50;99.90
5055;DHT22;13829;48.990;8.346;2023-02-14T09:48:04;3.20;99.90
5055;DHT22;13829;48.990;8.346;2023-02-14T09:50:36;3.50;99.90
5055;DHT22;13829;48.990;8.346;2023-02-14T09:53:24;3.70;99.90
5055;DHT22;13829;48.990;8.346;2023-02-14T09:56:01;3.90;99.90
5055;DHT22;13829;48.990;8.346;2023-02-14T09:58:34;4.00;99.90
5055;DHT22;13829;48.990;8.346;2023-02-14T10:01:12;4.10;99.90
5055;DHT22;13829;48.990;8.346;2023-02-14T10:04:12;4.10;99.90
5055;DHT22;13829;48.990;8.346;2023-02-14T10:06:49;4.20;99.90
5055;DHT22;13829;48.990;8.346;2023-02-14T10:09:41;4.20;99.90
5055;DHT22;13829;48.990;8.346;2023-02-14T10:12:21;4.10;99.90
5055;DHT22;13829;48.990;8.346;2023-02-14T10:14:52;4.20;99.90
5055;DHT22;13829;48.990;8.346;2023-02-14T10:17:28;4.30;99.90
5055;DHT22;13829;48.990;8.346;2023-02-14T10:20:09;4.30;99.90
5055;DHT22;13829;48.990;8.346;2023-02-14T10:22:48;4.40;99.90
5055;DHT22;13829;48.990;8.346;2023-02-14T10:25:23;4.50;99.90
5055;DHT22;13829;48.990;8.346;2023-02-14T10:27:55;4.70;99.90
5055;DHT22;13829;48.990;8.346;2023-02-14T10:30:26;4.70;99.90
5055;DHT22;13829;48.990;8.346;2023-02-14T10:33:03;4.60;99.90
5055;DHT22;13829;48.990;8.346;2023-02-14T10:35:44;4.70;99.90
5055;DHT22;13829;48.990;8.346;2023-02-14T10:38:24;4.70;99.90
5055;DHT22;13829;48.990;8.346;2023-02-14T10:41:16;4.90;99.90
5055;DHT22;13829;48.990;8.346;2023-02-14T10:44:15;4.80;99.90
5055;DHT22;13829;48.990;8.346;2023-02-14T10:46:56;4.80;99.90
5055;DHT22;13829;48.990;8.346;2023-02-14T10:49:36;4.90;99.90
5055;DHT22;13829;48.990;8.346;2023-02-14T10:52:17;5.00;99.90
5055;DHT22;13829;48.990;8.346;2023-02-14T10:54:53;5.10;99.90
5055;DHT22;13829;48.990;8.346;2023-02-14T10:57:25;5.30;99.90
5055;DHT22;13829;48.990;8.346;2023-02-14T10:59:57;5.10;99.90
5055;DHT22;13829;48.990;8.346;2023-02-14T11:02:31;4.90;99.90
5055;DHT22;13829;48.990;8.346;2023-02-14T11:05:02;4.90;99.90
5055;DHT22;13829;48.990;8.346;2023-02-14T11:07:32;4.90;99.90
5055;DHT22;13829;48.990;8.346;2023-02-14T11:10:00;5.00;99.90
5055;DHT22;13829;48.990;8.346;2023-02-14T11:12:35;5.10;99.90
5055;DHT22;13829;48.990;8.346;2023-02-14T11:15:17;5.20;99.90
5055;DHT22;13829;48.990;8.346;2023-02-14T11:17:48;4.80;99.90
5055;DHT22;13829;48.990;8.346;2023-02-14T11:20:23;4.50;99.90
5055;DHT22;13829;48.990;8.346;2023-02-14T11:22:53;4.40;99.90
5055;DHT22;13829;48.990;8.346;2023-02-14T11:25:22;4.60;99.90
5055;DHT22;13829;48.990;8.346;2023-02-14T11:27:58;4.90;99.90
5055;DHT22;13829;48.990;8.346;2023-02-14T11:30:32;5.20;99.90
5055;DHT22;13829;48.990;8.346;2023-02-14T11:33:02;5.40;99.90
5055;DHT22;13829;48.990;8.346;2023-02-14T11:35:30;5.40;99.90
5055;DHT22;13829;48.990;8.346;2023-02-14T11:38:01;5.40;99.90
5055;DHT22;13829;48.990;8.346;2023-02-14T11:40:32;5.00;99.90
5055;DHT22;13829;48.990;8.346;2023-02-14T11:43:16;4.70;99.90
5055;DHT22;13829;48.990;8.346;2023-02-14T11:45:47;4.80;99.90
5055;DHT22;13829;48.990;8.346;2023-02-14T11:48:17;5.20;99.90
5055;DHT22;13829;48.990;8.346;2023-02-14T11:50:54;5.30;99.90
5055;DHT22;13829;48.990;8.346;2023-02-14T11:53:26;5.50;99.90
5055;DHT22;13829;48.990;8.346;2023-02-14T11:55:57;5.70;99.90
5055;DHT22;13829;48.990;8.346;2023-02-14T11:58:31;5.60;99.90
5055;DHT22;13829;48.990;8.346;2023-02-14T12:01:02;5.60;99.90
5055;DHT22;13829;48.990;8.346;2023-02-14T12:03:44;5.50;99.90
5055;DHT22;13829;48.990;8.346;2023-02-14T12:06:22;5.60;99.90
5055;DHT22;13829;48.990;8.346;2023-02-14T12:09:10;5.70;99.90
5055;DHT22;13829;48.990;8.346;2023-02-14T12:11:38;5.60;99.90
5055;DHT22;13829;48.990;8.346;2023-02-14T12:14:19;5.70;99.90
5055;DHT22;13829;48.990;8.346;2023-02-14T12:16:54;5.60;99.90
5055;DHT22;13829;48.990;8.346;2023-02-14T12:19:31;5.60;99.90
5055;DHT22;13829;48.990;8.346;2023-02-14T12:22:07;5.40;99.90
5055;DHT22;13829;48.990;8.346;2023-02-14T12:24:46;5.50;99.90
5055;DHT22;13829;48.990;8.346;2023-02-14T12:27:24;5.40;99.90
5055;DHT22;13829;48.990;8.346;2023-02-14T12:30:01;5.30;99.90
5055;DHT22;13829;48.990;8.346;2023-02-14T12:32:32;5.50;99.90
5055;DHT22;13829;48.990;8.346;2023-02-14T12:35:02;5.70;99.90
5055;DHT22;13829;48.990;8.346;2023-02-14T12:37:47;5.70;99.90
5055;DHT22;13829;48.990;8.346;2023-02-14T12:40:30;5.80;99.90
5055;DHT22;13829;48.990;8.346;2023-02-14T12:46:40;5.80;99.90
5055;DHT22;13829;48.990;8.346;2023-02-14T12:49:31;5.70;99.90
5055;DHT22;13829;48.990;8.346;2023-02-14T12:52:37;5.70;99.90
5055;DHT22;13829;48.990;8.346;2023-02-14T12:55:32;5.40;99.90
5055;DHT22;13829;48.990;8.346;2023-02-14T12:58:22;5.20;99.90
5055;DHT22;13829;48.990;8.346;2023-02-14T13:01:08;5.30;99.90
5055;DHT22;13829;48.990;8.346;2023-02-14T13:06:58;5.50;99.90
5055;DHT22;13829;48.990;8.346;2023-02-14T13:09:38;5.60;99.90
5055;DHT22;13829;48.990;8.346;2023-02-14T13:12:20;5.80;99.90
5055;DHT22;13829;48.990;8.346;2023-02-14T13:15:08;6.00;99.90
5055;DHT22;13829;48.990;8.346;2023-02-14T13:17:48;5.90;99.90
5055;DHT22;13829;48.990;8.346;2023-02-14T13:20:32;5.80;99.90
5055;DHT22;13829;48.990;8.346;2023-02-14T13:23:12;5.50;99.90
5055;DHT22;13829;48.990;8.346;2023-02-14T13:25:44;5.40;99.90
5055;DHT22;13829;48.990;8.346;2023-02-14T13:28:17;5.30;99.90
5055;DHT22;13829;48.990;8.346;2023-02-14T13:30:45;5.40;99.90
5055;DHT22;13829;48.990;8.346;2023-02-14T13:33:23;5.40;99.90
5055;DHT22;13829;48.990;8.346;2023-02-14T13:35:55;5.40;99.90
5055;DHT22;13829;48.990;8.346;2023-02-14T13:38:26;5.40;99.90
5055;DHT22;13829;48.990;8.346;2023-02-14T13:40:56;5.20;99.90
5055;DHT22;13829;48.990;8.346;2023-02-14T13:43:47;5.00;99.90
5055;DHT22;13829;48.990;8.346;2023-02-14T13:49:32;5.00;99.90
5055;DHT22;13829;48.990;8.346;2023-02-14T13:52:04;5.30;99.90
5055;DHT22;13829;48.990;8.346;2023-02-14T13:54:41;5.40;99.90
5055;DHT22;13829;48.990;8.346;2023-02-14T13:57:26;5.50;99.90
5055;DHT22;13829;48.990;8.346;2023-02-14T14:00:28;5.50;99.90
5055;DHT22;13829;48.990;8.346;2023-02-14T14:03:03;5.60;99.90
5055;DHT22;13829;48.990;8.346;2023-02-14T14:08:45;5.80;99.90
5055;DHT22;13829;48.990;8.346;2023-02-14T14:14:34;5.90;99.90
5055;DHT22;13829;48.990;8.346;2023-02-14T14:17:21;5.90;99.90
5055;DHT22;13829;48.990;8.346;2023-02-14T14:19:52;5.90;99.90
5055;DHT22;13829;48.990;8.346;2023-02-14T14:22:19;6.00;99.90
5055;DHT22;13829;48.990;8.346;2023-02-14T14:24:52;6.10;99.90
5055;DHT22;13829;48.990;8.346;2023-02-14T14:27:23;6.10;99.90
5055;DHT22;13829;48.990;8.346;2023-02-14T14:29:54;6.10;99.90
5055;DHT22;13829;48.990;8.346;2023-02-14T14:32:28;6.20;99.90
5055;DHT22;13829;48.990;8.346;2023-02-14T14:34:58;6.40;99.90
5055;DHT22;13829;48.990;8.346;2023-02-14T14:37:29;6.40;99.90
5055;DHT22;13829;48.990;8.346;2023-02-14T14:39:59;6.40;99.90
5055;DHT22;13829;48.990;8.346;2023-02-14T14:42:31;6.40;99.90
5055;DHT22;13829;48.990;8.346;2023-02-14T14:45:04;6.50;99.90
5055;DHT22;13829;48.990;8.346;2023-02-14T14:47:40;6.60;99.90
5055;DHT22;13829;48.990;8.346;2023-02-14T14:50:14;6.50;99.90
5055;DHT22;13829;48.990;8.346;2023-02-14T14:52:46;6.50;99.90
5055;DHT22;13829;48.990;8.346;2023-02-14T14:55:18;6.50;99.90
5055;DHT22;13829;48.990;8.346;2023-02-14T14:57:49;6.50;99.90
5055;DHT22;13829;48.990;8.346;2023-02-14T15:00:26;6.50;99.90
5055;DHT22;13829;48.990;8.346;2023-02-14T15:02:59;6.50;99.90
5055;DHT22;13829;48.990;8.346;2023-02-14T15:05:31;6.50;99.90
5055;DHT22;13829;48.990;8.346;2023-02-14T15:08:13;6.50;99.90
5055;DHT22;13829;48.990;8.346;2023-02-14T15:10:42;6.50;99.90
5055;DHT22;13829;48.990;8.346;2023-02-14T15:13:13;6.60;99.90
5055;DHT22;13829;48.990;8.346;2023-02-14T15:15:58;6.60;99.90
5055;DHT22;13829;48.990;8.346;2023-02-14T15:18:28;6.50;99.90
5055;DHT22;13829;48.990;8.346;2023-02-14T15:20:55;6.50;99.90
5055;DHT22;13829;48.990;8.346;2023-02-14T15:23:23;6.40;99.90
5055;DHT22;13829;48.990;8.346;2023-02-14T15:25:50;6.40;99.90
5055;DHT22;13829;48.990;8.346;2023-02-14T15:28:29;6.40;99.90
5055;DHT22;13829;48.990;8.346;2023-02-14T15:30:59;6.40;99.90
5055;DHT22;13829;48.990;8.346;2023-02-14T15:33:30;6.30;99.90
5055;DHT22;13829;48.990;8.346;2023-02-14T15:36:01;6.20;99.90
5055;DHT22;13829;48.990;8.346;2023-02-14T15:38:30;6.10;99.90
5055;DHT22;13829;48.990;8.346;2023-02-14T15:40:59;6.10;99.90
5055;DHT22;13829;48.990;8.346;2023-02-14T15:43:30;6.10;99.90
5055;DHT22;13829;48.990;8.346;2023-02-14T15:46:11;6.10;99.90
5055;DHT22;13829;48.990;8.346;2023-02-14T15:48:43;6.00;99.90
5055;DHT22;13829;48.990;8.346;2023-02-14T15:51:18;6.00;99.90
5055;DHT22;13829;48.990;8.346;2023-02-14T15:53:52;6.00;99.90
5055;DHT22;13829;48.990;8.346;2023-02-14T15:56:24;6.00;99.90
5055;DHT22;13829;48.990;8.346;2023-02-14T15:58:58;6.00;99.90
5055;DHT22;13829;48.990;8.346;2023-02-14T16:01:27;6.00;99.90
5055;DHT22;13829;48.990;8.346;2023-02-14T16:03:58;6.00;99.90
5055;DHT22;13829;48.990;8.346;2023-02-14T16:06:35;5.90;99.90
5055;DHT22;13829;48.990;8.346;2023-02-14T16:09:06;5.90;99.90
5055;DHT22;13829;48.990;8.346;2023-02-14T16:11:48;5.80;99.90
5055;DHT22;13829;48.990;8.346;2023-02-14T16:14:23;5.80;99.90
5055;DHT22;13829;48.990;8.346;2023-02-14T16:16:59;5.80;99.90
5055;DHT22;13829;48.990;8.346;2023-02-14T16:19:35;5.70;99.90
5055;DHT22;13829;48.990;8.346;2023-02-14T16:22:04;5.70;99.90
5055;DHT22;13829;48.990;8.346;2023-02-14T16:24:33;5.60;99.90
5055;DHT22;13829;48.990;8.346;2023-02-14T16:27:02;5.60;99.90
5055;DHT22;13829;48.990;8.346;2023-02-14T16:29:32;5.60;99.90
5055;DHT22;13829;48.990;8.346;2023-02-14T16:32:10;5.50;99.90
5055;DHT22;13829;48.990;8.346;2023-02-14T16:34:40;5.50;99.90
5055;DHT22;13829;48.990;8.346;2023-02-14T16:37:08;5.40;99.90
5055;DHT22;13829;48.990;8.346;2023-02-14T16:39:45;5.40;99.90
5055;DHT22;13829;48.990;8.346;2023-02-14T16:42:15;5.30;99.90
5055;DHT22;13829;48.990;8.346;2023-02-14T16:44:44;5.20;99.90
5055;DHT22;13829;48.990;8.346;2023-02-14T16:47:13;5.10;99.90
5055;DHT22;13829;48.990;8.346;2023-02-14T16:49:43;5.00;99.90
5055;DHT22;13829;48.990;8.346;2023-02-14T16:52:12;5.00;99.90
5055;DHT22;13829;48.990;8.346;2023-02-14T16:54:41;5.00;99.90
5055;DHT22;13829;48.990;8.346;2023-02-14T16:57:11;4.80;99.90
5055;DHT22;13829;48.990;8.346;2023-02-14T16:59:43;4.80;99.90
5055;DHT22;13829;48.990;8.346;2023-02-14T17:02:10;4.70;99.90